Terminal Aerodrome Forecast
Issued by NWS Anchorage, AK

Home | Current Version | Previous Version | Text Only | Print | Product List | Glossary On
Versions: 1 2 3 4 5 6 7 8 9 10 11 12 13 14 15 16 17 18 19 20 21 22 23 24
000
FTAK31 PANC 222327
TAFANC
TAF
PANC 222327Z 2300/2406 26005KT P6SM FEW015 SCT080
     FM231200 VRB05KT P6SM BKN070
     FM231700 VRB05KT P6SM SCT010 BKN020
     FM240200 15008KT P6SM VCSH SCT020 OVC060=

USA.gov is the U.S. government's official web portal to all federal, state and local government web resources and services.